Huvudsida
METAR-TAF:

METAR-TAF

Flygplatser :

McCarran International Airport

Las Vegas, Nevada, USA

latitud: 36-04-44N, longitud: 115-09-19W, höjd: 663 m

Aktuellt väderrapport

Denna rapport gjordes för 59 minuter sedan, klockan 07:56 UTC
Vind 4 kt från syd/sydväst
Temperatur 8°C
Fuktighet 34%
Tryck 1023 hPa
Sikt: 16.1 km
Klar himmel

METAR: KLAS 160756Z 20004KT 10SM CLR 08/M07 A3020 RMK AO2 SLP223 T00781067 401670061

Tid: 00:55 (08:55 UTC)

Väderprognos

Denna rapport gjordes för 14 minuter sedan, klockan 08:41 UTC
Prognos gäller från 16 kl. 09 UTC till 17 kl. 12 UTC
Vind 5 kt varierande vindriktning
Sikt: 10 km
Få moln på en höjd av 25000 ft
Från 16 kl. 1900 UTC
Vind 5 kt från ost
Sikt: 10 km
Spridda moln på en höjd av 25000 ft
Från 17 kl. 0300 UTC
Vind 6 kt från väst/sydväst
Sikt: 10 km
Spridda moln på en höjd av 25000 ft

TAF: KLAS 160841Z 1609/1712 VRB05KT P6SM FEW250 FM161900 09005KT P6SM SCT250 FM170300 24006KT P6SM SCT250

Aktuella väderrapporter och prognoser från 4000 flygplatser (METAR- och TAF-rapporter).

De tillgängliga stationerna syns som gula och röda prickar på kartan.

För musen över prickarna för att se namnen på stationerna.

Klicka sedan för att få väderrapporter och prognoser.

För att ändra kartan: Klicka på de gröna knapparna med ett svart kors på för att zooma in; den gröna knappen med ett streck på för att zooma ut; eller på de gröna pilarna för angränsande kartor.


METAR-TAF: